createdAt,value
2017-09-18T00:00:20.722Z,75.00
2017-09-18T00:02:52.654Z,75.20
2017-09-18T00:05:24.943Z,75.30
2017-09-18T00:07:56.713Z,75.30
2017-09-18T00:10:28.785Z,75.20
2017-09-18T00:13:00.844Z,75.40
2017-09-18T00:15:33.739Z,75.40
2017-09-18T00:18:06.141Z,75.40
2017-09-18T00:20:38.178Z,75.40
2017-09-18T00:23:09.765Z,75.50
2017-09-18T00:25:41.582Z,75.60
2017-09-18T00:28:14.178Z,75.60
2017-09-18T00:30:46.011Z,75.60
2017-09-18T00:33:17.913Z,75.80
2017-09-18T00:35:49.731Z,75.60
2017-09-18T00:38:22.560Z,75.40
2017-09-18T00:40:54.493Z,75.20
2017-09-18T00:43:26.337Z,75.50
2017-09-18T00:45:58.888Z,75.50
2017-09-18T00:48:37.485Z,75.50
2017-09-18T00:51:10.305Z,75.40
2017-09-18T00:53:42.468Z,75.80
2017-09-18T00:56:14.306Z,76.10
2017-09-18T00:58:47.179Z,75.70
2017-09-18T01:01:19.022Z,75.60
2017-09-18T01:03:50.740Z,75.90
2017-09-18T01:06:22.599Z,75.70
2017-09-18T01:08:54.238Z,75.50
2017-09-18T01:11:26.040Z,75.70
2017-09-18T01:13:57.978Z,75.80
2017-09-18T01:16:29.755Z,75.60
2017-09-18T01:19:01.510Z,75.70
2017-09-18T01:21:33.298Z,75.90
2017-09-18T01:24:05.146Z,75.40
2017-09-18T01:26:37.106Z,75.40
2017-09-18T01:29:08.915Z,76.30
2017-09-18T01:31:40.909Z,75.60
2017-09-18T01:34:13.058Z,75.60
2017-09-18T01:36:45.044Z,75.80
2017-09-18T01:39:17.623Z,75.60
2017-09-18T01:41:49.500Z,75.50
2017-09-18T01:44:21.217Z,75.50
2017-09-18T01:46:53.786Z,75.70
2017-09-18T01:49:25.837Z,75.70
2017-09-18T01:51:57.886Z,75.90
2017-09-18T01:54:30.068Z,75.80
2017-09-18T01:57:01.983Z,75.80
2017-09-18T01:59:33.974Z,75.80
2017-09-18T02:02:05.888Z,75.80
2017-09-18T02:04:37.623Z,75.70
2017-09-18T02:07:09.682Z,75.70
2017-09-18T02:09:42.327Z,75.90
2017-09-18T02:12:14.943Z,75.80
2017-09-18T02:14:47.091Z,75.40
2017-09-18T02:17:18.913Z,75.70
2017-09-18T02:19:51.255Z,75.80
2017-09-18T02:22:23.201Z,76.10
2017-09-18T02:24:56.067Z,75.40
2017-09-18T02:27:28.608Z,75.20
2017-09-18T02:30:00.651Z,75.10
2017-09-18T02:32:32.621Z,75.10
2017-09-18T02:35:05.574Z,75.50
2017-09-18T02:37:38.161Z,75.70
2017-09-18T02:40:10.868Z,75.00
2017-09-18T02:42:43.087Z,75.00
2017-09-18T02:45:15.582Z,74.80
2017-09-18T02:47:47.714Z,75.30
2017-09-18T02:50:18.949Z,74.90
2017-09-18T02:52:50.802Z,75.00
2017-09-18T02:55:22.671Z,75.00
2017-09-18T02:57:55.235Z,75.20
2017-09-18T03:00:26.779Z,75.10
2017-09-18T03:02:58.731Z,74.90
2017-09-18T03:05:30.439Z,74.80
2017-09-18T03:08:02.296Z,75.10
2017-09-18T03:10:34.220Z,74.90
2017-09-18T03:13:06.221Z,74.70
2017-09-18T03:15:38.047Z,74.90
2017-09-18T03:18:09.821Z,74.90
2017-09-18T03:20:41.865Z,74.70
2017-09-18T03:23:13.830Z,74.60
2017-09-18T03:25:45.961Z,74.50
2017-09-18T03:28:18.733Z,74.50
2017-09-18T03:30:50.515Z,74.50
2017-09-18T03:33:22.503Z,74.30
2017-09-18T03:35:55.402Z,74.70
2017-09-18T03:38:27.343Z,74.60
2017-09-18T03:40:59.139Z,74.60
2017-09-18T03:43:31.338Z,74.50
2017-09-18T03:46:03.254Z,74.50
2017-09-18T03:48:36.620Z,74.50
2017-09-18T03:51:08.602Z,74.50
2017-09-18T03:53:41.861Z,74.20
2017-09-18T03:56:14.410Z,74.20
2017-09-18T03:58:46.538Z,74.10
2017-09-18T04:01:18.488Z,74.00
2017-09-18T04:03:50.529Z,74.30
2017-09-18T04:06:22.425Z,74.50
2017-09-18T04:08:55.499Z,74.50
2017-09-18T04:11:27.382Z,74.60
2017-09-18T04:13:59.292Z,73.90
2017-09-18T04:16:31.041Z,74.00
2017-09-18T04:19:03.689Z,73.40
2017-09-18T04:21:36.821Z,73.40
2017-09-18T04:24:08.902Z,73.60
2017-09-18T04:26:40.877Z,73.60
2017-09-18T04:29:13.378Z,73.40
2017-09-18T04:31:45.982Z,74.50
2017-09-18T04:34:18.004Z,73.70
2017-09-18T04:36:51.578Z,73.10
2017-09-18T04:39:24.222Z,73.50
2017-09-18T04:41:56.775Z,73.30
2017-09-18T04:44:30.092Z,73.00
2017-09-18T04:47:02.046Z,72.90
2017-09-18T04:49:34.122Z,73.50
2017-09-18T04:52:06.071Z,73.30
2017-09-18T04:54:38.609Z,73.50
2017-09-18T04:57:11.057Z,73.30
2017-09-18T04:59:42.929Z,72.90
2017-09-18T05:02:15.570Z,73.10
2017-09-18T05:04:48.584Z,73.40
2017-09-18T05:07:20.546Z,73.20
2017-09-18T05:09:52.505Z,73.40
2017-09-18T05:12:24.501Z,73.40
2017-09-18T05:14:56.430Z,73.50
2017-09-18T05:17:29.550Z,72.80
2017-09-18T05:20:11.459Z,72.60
2017-09-18T05:22:54.833Z,72.70
2017-09-18T05:25:31.619Z,73.00
2017-09-18T05:28:07.045Z,72.80
2017-09-18T05:30:39.899Z,72.80
2017-09-18T05:33:12.556Z,73.40
2017-09-18T05:35:46.141Z,73.40
2017-09-18T05:38:18.941Z,73.20
2017-09-18T05:40:51.302Z,73.00
2017-09-18T05:43:24.410Z,73.20
2017-09-18T05:45:56.437Z,72.90
2017-09-18T05:48:28.281Z,72.40
2017-09-18T05:51:00.232Z,72.70
2017-09-18T05:53:32.094Z,72.80
2017-09-18T05:56:04.345Z,73.30
2017-09-18T05:58:36.292Z,73.20
2017-09-18T06:01:08.361Z,73.20
2017-09-18T06:03:41.734Z,73.40
2017-09-18T06:06:13.771Z,73.40
2017-09-18T06:08:45.828Z,73.50
2017-09-18T06:11:17.570Z,73.70
2017-09-18T06:13:49.977Z,73.40
2017-09-18T06:16:21.718Z,73.50
2017-09-18T06:18:54.682Z,73.60
2017-09-18T06:21:26.604Z,73.80
2017-09-18T06:24:01.207Z,73.90
2017-09-18T06:26:33.153Z,73.90
2017-09-18T06:29:05.055Z,74.00
2017-09-18T06:31:38.631Z,74.60
2017-09-18T06:34:10.743Z,74.10
2017-09-18T06:36:42.624Z,74.10
2017-09-18T06:39:15.531Z,74.40
2017-09-18T06:41:47.253Z,74.50
2017-09-18T06:44:19.337Z,74.50
2017-09-18T06:46:52.072Z,74.40
2017-09-18T06:49:24.624Z,74.80
2017-09-18T06:51:56.192Z,74.80
2017-09-18T07:24:30.685Z,76.10
2017-09-18T07:27:01.079Z,76.10
2017-09-18T07:29:34.575Z,76.50
2017-09-18T07:32:06.597Z,75.90
2017-09-18T07:34:41.534Z,76.60
2017-09-18T07:37:24.877Z,76.50
2017-09-18T07:40:05.907Z,76.50
2017-09-18T07:42:42.473Z,76.70
2017-09-18T07:45:21.082Z,76.70
2017-09-18T07:47:56.692Z,76.80
2017-09-18T07:50:32.719Z,76.60
2017-09-18T07:53:09.523Z,76.60
2017-09-18T07:55:41.528Z,76.90
2017-09-18T09:10:20.341Z,73.50
2017-09-18T09:12:52.395Z,73.10
2017-09-18T09:15:24.431Z,73.40
2017-09-18T09:17:55.359Z,73.50
2017-09-18T09:20:26.326Z,73.60
2017-09-18T09:22:58.113Z,73.50
2017-09-18T09:25:28.854Z,72.60
2017-09-18T09:28:00.644Z,72.60
2017-09-18T09:30:33.332Z,72.60
2017-09-18T09:33:06.348Z,72.60
2017-09-18T09:35:38.142Z,73.20
2017-09-18T09:38:09.357Z,72.50
2017-09-18T09:40:40.240Z,72.20
2017-09-18T09:43:10.998Z,72.40
2017-09-18T09:45:41.944Z,72.90
2017-09-18T09:48:12.917Z,71.90
2017-09-18T09:50:44.410Z,71.90
2017-09-18T09:53:16.134Z,71.40
2017-09-18T09:55:51.583Z,72.10
2017-09-18T09:58:24.463Z,72.00
2017-09-18T10:00:57.339Z,72.10
2017-09-18T10:03:29.999Z,71.50
2017-09-18T10:06:04.552Z,71.70
2017-09-18T10:08:37.173Z,72.10
2017-09-18T10:11:10.063Z,72.20
2017-09-18T10:13:43.568Z,72.40
2017-09-18T10:16:17.796Z,73.50
2017-09-18T10:18:51.215Z,72.50
2017-09-18T10:21:25.051Z,72.60
2017-09-18T10:23:58.562Z,72.60
2017-09-18T10:26:31.196Z,72.50
2017-09-18T10:29:04.849Z,73.10
2017-09-18T10:31:39.664Z,72.40
2017-09-18T10:34:15.042Z,72.40
2017-09-18T10:36:50.395Z,72.50
2017-09-18T10:39:26.804Z,72.10
2017-09-18T10:42:00.943Z,72.10
2017-09-18T10:44:35.599Z,71.50
2017-09-18T10:47:12.344Z,71.50
2017-09-18T10:49:46.271Z,71.40
2017-09-18T10:52:19.356Z,71.30
2017-09-18T10:54:52.447Z,71.60
2017-09-18T10:57:28.609Z,71.80
2017-09-18T11:00:02.774Z,73.60
2017-09-18T11:02:36.546Z,72.70
2017-09-18T11:05:09.381Z,72.50
2017-09-18T11:07:42.284Z,72.30
2017-09-18T11:10:17.347Z,72.30
2017-09-18T11:12:52.879Z,72.20
2017-09-18T11:15:27.156Z,72.50
2017-09-18T11:18:01.960Z,71.70
2017-09-18T11:20:34.881Z,70.90
2017-09-18T11:23:10.193Z,70.20
2017-09-18T11:25:44.587Z,70.20
2017-09-18T11:28:19.248Z,70.00
2017-09-18T11:30:53.592Z,68.20
2017-09-18T11:33:27.054Z,68.00
2017-09-18T11:36:01.965Z,67.50
2017-09-18T11:38:36.641Z,67.80
2017-09-18T11:41:12.606Z,67.90
2017-09-18T11:43:52.898Z,68.90
2017-09-18T11:46:29.032Z,69.90
2017-09-18T11:49:02.511Z,69.80
2017-09-18T11:51:37.672Z,70.00
2017-09-18T11:54:10.751Z,70.00
2017-09-18T11:56:45.814Z,70.50
2017-09-18T11:59:19.986Z,70.90
2017-09-18T12:01:53.066Z,70.80
2017-09-18T12:04:27.155Z,71.00
2017-09-18T12:06:59.832Z,71.20
2017-09-18T12:09:33.652Z,71.30
2017-09-18T12:12:07.297Z,71.30
2017-09-18T12:14:41.865Z,71.40
2017-09-18T12:17:15.333Z,71.40
2017-09-18T12:19:49.887Z,71.00
2017-09-18T12:22:23.794Z,70.80
2017-09-18T12:24:58.962Z,71.30
2017-09-18T12:27:33.733Z,71.20
2017-09-18T12:30:09.978Z,71.20
2017-09-18T12:32:46.593Z,70.20
2017-09-18T12:35:21.129Z,70.50
2017-09-18T12:37:57.863Z,70.30
2017-09-18T12:40:33.543Z,70.80
2017-09-18T12:43:08.180Z,71.00
2017-09-18T12:45:46.747Z,71.00
2017-09-18T12:48:23.853Z,70.80
2017-09-18T12:51:06.060Z,70.80
2017-09-18T12:53:41.044Z,70.00
2017-09-18T12:56:16.775Z,69.30
2017-09-18T12:58:50.810Z,69.80
2017-09-18T13:01:25.079Z,69.70
2017-09-18T13:04:01.057Z,69.80
2017-09-18T13:06:35.687Z,69.90
2017-09-18T13:09:11.181Z,70.10
2017-09-18T13:11:47.515Z,69.90
2017-09-18T13:14:20.963Z,70.00
2017-09-18T13:16:55.629Z,69.10
2017-09-18T13:19:34.500Z,68.50
2017-09-18T13:22:09.999Z,68.10
2017-09-18T13:24:46.768Z,68.40
2017-09-18T13:27:20.089Z,67.80
2017-09-18T13:29:55.195Z,67.20
2017-09-18T13:32:28.162Z,67.80
2017-09-18T13:35:01.798Z,67.30
2017-09-18T13:37:35.191Z,66.60
2017-09-18T13:40:11.403Z,67.40
2017-09-18T13:42:44.887Z,67.30
2017-09-18T13:45:19.438Z,67.60
2017-09-18T13:47:54.642Z,67.50
2017-09-18T13:50:28.500Z,67.60
2017-09-18T13:53:04.237Z,68.20
2017-09-18T13:55:38.878Z,68.00
2017-09-18T13:58:15.294Z,68.40
2017-09-18T14:00:49.624Z,68.30
2017-09-18T14:03:24.905Z,68.40
2017-09-18T14:05:59.056Z,68.30
2017-09-18T14:08:34.339Z,67.90
2017-09-18T14:11:08.236Z,67.90
2017-09-18T14:13:44.253Z,67.80
2017-09-18T14:16:21.700Z,67.70
2017-09-18T14:18:56.491Z,67.80
2017-09-18T14:21:31.934Z,67.70
2017-09-18T14:24:06.144Z,68.00
2017-09-18T14:26:41.253Z,68.50
2017-09-18T14:29:14.637Z,68.40
2017-09-18T14:31:48.529Z,67.90
2017-09-18T14:34:22.517Z,66.70
2017-09-18T14:36:55.857Z,68.60
2017-09-18T14:39:29.882Z,67.90
2017-09-18T14:42:03.244Z,67.60
2017-09-18T14:44:36.809Z,68.10
2017-09-18T14:47:09.914Z,68.80
2017-09-18T14:49:42.743Z,67.70
2017-09-18T14:52:17.729Z,68.30
2017-09-18T14:54:52.022Z,68.30
2017-09-18T14:57:25.677Z,68.70
2017-09-18T14:59:58.726Z,68.30
2017-09-18T15:02:32.934Z,68.80
2017-09-18T15:05:05.415Z,68.70
2017-09-18T15:07:38.695Z,69.20
2017-09-18T15:10:11.041Z,69.60
2017-09-18T15:12:45.397Z,68.40
2017-09-18T15:15:21.960Z,69.40
2017-09-18T15:17:54.826Z,68.60
2017-09-18T15:20:27.551Z,68.50
2017-09-18T15:22:59.121Z,69.30
2017-09-18T15:25:31.389Z,68.80
2017-09-18T15:28:02.508Z,68.90
2017-09-18T15:30:33.309Z,69.30
2017-09-18T15:33:04.795Z,68.90
2017-09-18T15:35:35.775Z,68.80
2017-09-18T15:38:06.746Z,68.90
2017-09-18T15:40:37.255Z,68.80
2017-09-18T15:43:08.302Z,69.60
2017-09-18T15:45:40.913Z,69.60
2017-09-18T15:48:11.659Z,69.60
2017-09-18T15:50:43.383Z,69.30
2017-09-18T15:53:14.423Z,69.70
2017-09-18T15:55:45.679Z,69.30
2017-09-18T15:58:16.675Z,69.50
2017-09-18T16:00:48.289Z,69.80
2017-09-18T16:03:19.340Z,69.50
2017-09-18T16:05:50.168Z,67.50
2017-09-18T16:08:21.648Z,66.30
2017-09-18T16:10:52.671Z,68.10
2017-09-18T16:13:24.131Z,68.90
2017-09-18T16:15:54.986Z,69.40
2017-09-18T16:18:26.005Z,69.00
2017-09-18T16:20:57.552Z,69.60
2017-09-18T16:23:29.449Z,69.90
2017-09-18T16:26:00.298Z,69.80
2017-09-18T16:28:31.250Z,69.50
2017-09-18T16:31:04.453Z,70.20
2017-09-18T16:33:36.762Z,70.10
2017-09-18T16:36:07.630Z,70.60
2017-09-18T16:38:38.559Z,69.70
2017-09-18T16:41:09.675Z,70.00
2017-09-18T16:43:40.622Z,69.60
2017-09-18T16:46:11.555Z,69.90
2017-09-18T16:48:42.408Z,69.70
2017-09-18T16:51:14.013Z,70.50
2017-09-18T16:53:45.581Z,70.20
2017-09-18T16:56:16.263Z,70.20
2017-09-18T16:58:48.492Z,70.40
2017-09-18T17:01:20.363Z,70.20
2017-09-18T17:03:51.103Z,70.30
2017-09-18T17:06:22.195Z,70.00
2017-09-18T17:08:52.817Z,70.30
2017-09-18T17:11:24.181Z,70.00
2017-09-18T17:13:55.546Z,70.20
2017-09-18T17:16:26.157Z,70.20
2017-09-18T17:18:57.349Z,70.10
2017-09-18T17:21:28.117Z,70.20
2017-09-18T17:23:59.182Z,70.50
2017-09-18T17:26:29.716Z,70.20
2017-09-18T17:29:00.481Z,70.00
2017-09-18T17:31:32.240Z,70.40
2017-09-18T17:34:03.006Z,70.30
2017-09-18T17:36:33.491Z,70.50
2017-09-18T17:39:04.831Z,70.60
2017-09-18T17:41:35.554Z,70.60
2017-09-18T17:44:06.366Z,71.00
2017-09-18T17:46:36.935Z,70.90
2017-09-18T17:49:07.761Z,70.60
2017-09-18T17:51:52.064Z,71.00
2017-09-18T17:54:52.728Z,71.20
2017-09-18T17:57:24.445Z,71.00
2017-09-18T17:59:56.611Z,71.30
2017-09-18T18:02:27.218Z,71.20
2017-09-18T18:04:58.066Z,71.50
2017-09-18T18:07:28.846Z,71.50
2017-09-18T18:09:59.753Z,71.70
2017-09-18T18:12:31.504Z,71.60
2017-09-18T18:15:03.173Z,71.60
2017-09-18T18:17:34.170Z,71.70
2017-09-18T18:20:04.754Z,71.60
2017-09-18T18:22:36.036Z,71.70
2017-09-18T18:25:07.215Z,71.60
2017-09-18T18:27:37.683Z,71.90
2017-09-18T18:30:08.309Z,71.80
2017-09-18T18:32:40.448Z,71.90
2017-09-18T18:35:11.029Z,71.90
2017-09-18T18:37:42.337Z,71.70
2017-09-18T18:40:13.071Z,71.80
2017-09-18T18:42:43.624Z,71.40
2017-09-18T18:45:15.865Z,70.20
2017-09-18T18:47:47.320Z,68.70
2017-09-18T18:50:18.929Z,68.60
2017-09-18T18:52:50.791Z,68.00
2017-09-18T18:55:21.356Z,67.80
2017-09-18T18:57:51.936Z,67.30
2017-09-18T19:00:22.697Z,67.10
2017-09-18T19:02:53.289Z,67.10
2017-09-18T19:05:24.803Z,67.10
2017-09-18T19:07:55.782Z,67.50
2017-09-18T19:10:27.083Z,67.00
2017-09-18T19:12:57.718Z,66.90
2017-09-18T19:15:28.316Z,66.90
2017-09-18T19:17:59.137Z,66.90
2017-09-18T19:20:29.665Z,66.90
2017-09-18T19:23:00.482Z,67.40
2017-09-18T19:25:31.812Z,66.60
2017-09-18T19:28:03.124Z,66.50
2017-09-18T19:30:34.009Z,66.50
2017-09-18T19:33:04.705Z,66.90
2017-09-18T19:35:35.279Z,66.50
2017-09-18T19:38:07.205Z,66.60
2017-09-18T19:40:39.662Z,66.50
2017-09-18T19:43:10.140Z,66.30
2017-09-18T19:45:40.668Z,66.30
2017-09-18T19:48:11.189Z,66.40
2017-09-18T19:50:41.693Z,66.40
2017-09-18T19:53:12.763Z,66.60
2017-09-18T19:55:44.990Z,66.40
2017-09-18T19:58:15.963Z,66.40
2017-09-18T20:00:46.919Z,66.60
2017-09-18T20:03:17.778Z,66.90
2017-09-18T20:05:48.914Z,66.80
2017-09-18T20:08:19.528Z,66.70
2017-09-18T20:10:50.145Z,66.80
2017-09-18T20:13:21.761Z,66.90
2017-09-18T20:15:52.471Z,66.80
2017-09-18T20:18:23.349Z,66.80
2017-09-18T20:20:53.956Z,66.50
2017-09-18T20:23:25.018Z,67.00
2017-09-18T20:25:56.524Z,66.60
2017-09-18T20:28:27.329Z,67.60
2017-09-18T20:30:58.017Z,67.80
2017-09-18T20:33:29.459Z,67.60
2017-09-18T20:36:00.137Z,68.50
2017-09-18T20:38:30.765Z,68.20
2017-09-18T20:41:01.410Z,66.60
2017-09-18T20:43:32.682Z,67.60
2017-09-18T20:46:03.236Z,67.50
2017-09-18T20:48:33.745Z,68.30
2017-09-18T20:51:06.188Z,68.10
2017-09-18T20:53:37.586Z,67.80
2017-09-18T20:56:08.184Z,67.80
2017-09-18T20:58:40.884Z,69.30
2017-09-18T21:01:11.768Z,68.00
2017-09-18T21:03:43.376Z,68.50
2017-09-18T21:06:14.484Z,68.80
2017-09-18T21:08:44.927Z,68.20
2017-09-18T21:11:15.462Z,68.60
2017-09-18T21:13:46.847Z,67.30
2017-09-18T21:16:17.596Z,67.20
2017-09-18T21:18:48.154Z,67.70
2017-09-18T21:21:19.441Z,67.40
2017-09-18T21:23:50.140Z,67.40
2017-09-18T21:26:20.629Z,67.40
2017-09-18T21:28:52.010Z,68.40
2017-09-18T21:31:22.509Z,67.30
2017-09-18T21:33:53.162Z,67.40
2017-09-18T21:36:24.578Z,68.40
2017-09-18T21:38:55.486Z,68.30
2017-09-18T21:41:26.304Z,67.30
2017-09-18T21:43:56.796Z,67.80
2017-09-18T21:46:27.402Z,67.00
2017-09-18T21:48:58.134Z,67.30
2017-09-18T21:51:28.945Z,66.90
2017-09-18T21:53:59.612Z,67.20
2017-09-18T21:56:30.518Z,66.90
2017-09-18T21:59:01.001Z,66.50
2017-09-18T22:01:31.655Z,67.20
2017-09-18T22:04:02.260Z,66.90
2017-09-18T22:06:33.054Z,67.30
2017-09-18T22:09:03.949Z,67.50
2017-09-18T22:11:34.546Z,67.60
2017-09-18T22:14:05.351Z,67.20
2017-09-18T22:16:36.387Z,66.70
2017-09-18T22:19:06.957Z,66.40
2017-09-18T22:21:37.789Z,66.80
2017-09-18T22:24:16.649Z,66.50
2017-09-18T22:26:47.345Z,66.50
2017-09-18T22:29:17.821Z,66.70
2017-09-18T22:31:48.331Z,66.40
2017-09-18T22:34:18.830Z,66.30
2017-09-18T22:36:49.350Z,66.50
2017-09-18T22:39:19.955Z,66.20
2017-09-18T22:41:50.419Z,66.30
2017-09-18T22:44:21.000Z,66.10
2017-09-18T22:46:51.707Z,66.20
2017-09-18T22:49:22.279Z,66.00
2017-09-18T22:51:52.701Z,66.80
2017-09-18T22:54:23.228Z,65.90
2017-09-18T22:56:53.835Z,66.70
2017-09-18T22:59:24.480Z,66.60
2017-09-18T23:01:55.087Z,66.10
2017-09-18T23:04:25.586Z,67.10
2017-09-18T23:06:56.086Z,66.10
2017-09-18T23:09:26.859Z,66.50
2017-09-18T23:11:57.484Z,66.50
2017-09-18T23:14:28.154Z,66.00
2017-09-18T23:16:58.699Z,65.50
2017-09-18T23:19:29.399Z,65.80
2017-09-18T23:21:59.842Z,65.40
2017-09-18T23:24:31.308Z,65.40
2017-09-18T23:27:01.842Z,65.40
2017-09-18T23:29:32.356Z,65.20
2017-09-18T23:32:02.779Z,65.40
2017-09-18T23:34:33.311Z,65.20
2017-09-18T23:37:04.762Z,65.10
2017-09-18T23:39:35.322Z,65.40
2017-09-18T23:42:05.728Z,65.10
2017-09-18T23:44:36.247Z,65.30
2017-09-18T23:47:06.992Z,65.40
2017-09-18T23:49:37.620Z,65.40
2017-09-18T23:52:08.068Z,65.10
2017-09-18T23:54:38.575Z,64.80
2017-09-18T23:57:09.095Z,65.70
2017-09-18T23:59:39.742Z,64.80
